createdAt,value
2019-02-10T00:00:11.829Z,0.00
2019-02-10T00:01:11.814Z,0.00
2019-02-10T00:02:11.798Z,0.00
2019-02-10T00:03:11.792Z,0.00
2019-02-10T00:04:11.798Z,0.00
2019-02-10T00:05:11.769Z,0.00
2019-02-10T00:06:11.759Z,0.00
2019-02-10T00:07:11.751Z,0.00
2019-02-10T00:08:11.740Z,0.00
2019-02-10T00:09:11.727Z,0.00
2019-02-10T00:10:11.734Z,0.00
2019-02-10T00:11:11.705Z,0.00
2019-02-10T00:12:11.695Z,0.00
2019-02-10T00:13:11.686Z,0.00
2019-02-10T00:14:11.676Z,0.00
2019-02-10T00:15:11.663Z,0.00
2019-02-10T00:16:11.670Z,0.00
2019-02-10T00:17:11.644Z,0.00
2019-02-10T00:18:11.667Z,0.00
2019-02-10T00:19:11.622Z,0.00
2019-02-10T00:20:11.612Z,0.00
2019-02-10T00:21:11.601Z,0.00
2019-02-10T00:22:11.629Z,0.00
2019-02-10T00:23:11.581Z,0.00
2019-02-10T00:24:11.567Z,0.00
2019-02-10T00:25:11.561Z,0.00
2019-02-10T00:26:11.548Z,0.00
2019-02-10T00:27:11.535Z,0.00
2019-02-10T00:28:11.543Z,0.00
2019-02-10T00:29:11.518Z,0.00
2019-02-10T00:30:11.506Z,0.00
2019-02-10T00:31:11.494Z,0.00
2019-02-10T00:32:11.484Z,0.00
2019-02-10T00:33:11.475Z,0.00
2019-02-10T00:34:11.480Z,0.00
2019-02-10T00:35:11.455Z,0.00
2019-02-10T00:36:11.487Z,0.00
2019-02-10T00:37:11.431Z,0.00
2019-02-10T00:38:11.421Z,0.00
2019-02-10T00:39:11.412Z,0.00
2019-02-10T00:40:11.414Z,0.00
2019-02-10T00:41:11.397Z,0.00
2019-02-10T00:42:11.379Z,0.00
2019-02-10T00:43:11.369Z,0.00
2019-02-10T00:44:11.359Z,0.00
2019-02-10T00:45:11.347Z,0.00
2019-02-10T00:46:11.357Z,0.00
2019-02-10T00:47:11.324Z,0.00
2019-02-10T00:48:11.315Z,0.00
2019-02-10T00:49:11.306Z,0.00
2019-02-10T00:50:11.295Z,0.00
2019-02-10T00:51:11.280Z,0.00
2019-02-10T00:52:11.286Z,0.00
2019-02-10T00:53:11.263Z,0.00
2019-02-10T00:54:11.257Z,0.00
2019-02-10T00:55:11.242Z,0.00
2019-02-10T00:56:11.233Z,0.00
2019-02-10T00:57:11.220Z,0.00
2019-02-10T00:58:11.223Z,0.00
2019-02-10T00:59:11.200Z,0.00
2019-02-10T01:00:11.188Z,0.00
2019-02-10T01:01:11.179Z,0.00
2019-02-10T01:02:11.169Z,0.00
2019-02-10T01:03:11.156Z,0.00
2019-02-10T01:04:11.166Z,0.00
2019-02-10T01:05:11.139Z,0.00
2019-02-10T01:06:11.124Z,0.00
2019-02-10T01:07:11.114Z,0.00
2019-02-10T01:08:11.104Z,0.00
2019-02-10T01:09:11.092Z,0.00
2019-02-10T01:10:11.109Z,0.00
2019-02-10T01:11:11.069Z,0.00
2019-02-10T01:12:11.060Z,0.00
2019-02-10T01:13:11.051Z,0.00
2019-02-10T01:14:11.044Z,0.00
2019-02-10T01:15:11.022Z,0.00
2019-02-10T01:16:11.038Z,0.00
2019-02-10T01:17:11.011Z,0.00
2019-02-10T01:18:10.997Z,0.00
2019-02-10T01:19:10.993Z,0.00
2019-02-10T01:20:10.977Z,0.00
2019-02-10T01:21:10.971Z,0.00
2019-02-10T01:22:10.971Z,0.00
2019-02-10T01:23:10.946Z,0.00
2019-02-10T01:24:10.937Z,0.00
2019-02-10T01:25:10.923Z,0.00
2019-02-10T01:26:10.915Z,0.00
2019-02-10T01:27:10.903Z,0.00
2019-02-10T01:28:10.923Z,0.00
2019-02-10T01:29:10.882Z,0.00
2019-02-10T01:30:10.872Z,0.00
2019-02-10T01:31:10.862Z,0.00
2019-02-10T01:32:10.849Z,0.00
2019-02-10T01:33:10.839Z,0.00
2019-02-10T01:34:10.842Z,0.00
2019-02-10T01:35:10.816Z,0.00
2019-02-10T01:36:10.806Z,0.00
2019-02-10T01:37:10.797Z,0.00
2019-02-10T01:38:10.789Z,0.00
2019-02-10T01:39:10.774Z,0.00
2019-02-10T01:40:10.783Z,0.00
2019-02-10T01:41:10.753Z,0.00
2019-02-10T01:42:10.742Z,0.00
2019-02-10T01:43:10.733Z,0.00
2019-02-10T01:44:10.723Z,0.00
2019-02-10T01:45:10.708Z,0.00
2019-02-10T01:46:10.720Z,0.00
2019-02-10T01:47:10.687Z,0.00
2019-02-10T01:48:11.633Z,0.00
2019-02-10T01:49:10.667Z,0.00
2019-02-10T01:50:10.656Z,0.00
2019-02-10T01:51:10.652Z,0.00
2019-02-10T01:52:10.650Z,0.00
2019-02-10T01:53:10.625Z,0.00
2019-02-10T01:54:10.615Z,0.00
2019-02-10T01:55:10.609Z,0.00
2019-02-10T01:56:10.593Z,0.00
2019-02-10T01:57:10.583Z,0.00
2019-02-10T01:58:10.590Z,0.00
2019-02-10T01:59:10.561Z,0.00
2019-02-10T02:00:10.553Z,0.00
2019-02-10T02:01:10.539Z,0.00
2019-02-10T02:02:10.526Z,0.00
2019-02-10T02:03:10.519Z,0.00
2019-02-10T02:04:10.526Z,0.00
2019-02-10T02:05:10.497Z,0.00
2019-02-10T02:06:10.487Z,0.00
2019-02-10T02:07:10.482Z,0.00
2019-02-10T02:08:10.469Z,0.00
2019-02-10T02:09:10.455Z,0.00
2019-02-10T02:10:10.468Z,0.00
2019-02-10T02:11:10.432Z,0.00
2019-02-10T02:12:10.423Z,0.00
2019-02-10T02:13:10.414Z,0.00
2019-02-10T02:14:10.404Z,0.00
2019-02-10T02:15:10.391Z,0.00
2019-02-10T02:16:10.404Z,0.00
2019-02-10T02:17:10.371Z,0.00
2019-02-10T02:18:10.359Z,0.00
2019-02-10T02:19:10.349Z,0.00
2019-02-10T02:20:10.340Z,0.00
2019-02-10T02:21:10.326Z,0.00
2019-02-10T02:22:10.330Z,0.00
2019-02-10T02:23:10.307Z,0.00
2019-02-10T02:24:10.295Z,0.00
2019-02-10T02:25:10.285Z,0.00
2019-02-10T02:26:10.275Z,0.00
2019-02-10T02:27:10.266Z,0.00
2019-02-10T02:28:10.272Z,0.00
2019-02-10T02:29:10.244Z,0.00
2019-02-10T02:30:10.248Z,0.00
2019-02-10T02:31:10.227Z,0.00
2019-02-10T02:32:10.218Z,0.00
2019-02-10T02:33:10.198Z,0.00
2019-02-10T02:34:10.206Z,0.00
2019-02-10T02:35:10.180Z,0.00
2019-02-10T02:36:10.169Z,0.00
2019-02-10T02:37:10.160Z,0.00
2019-02-10T02:38:10.147Z,0.00
2019-02-10T02:39:10.153Z,0.00
2019-02-10T02:40:10.144Z,0.00
2019-02-10T02:41:10.114Z,0.00
2019-02-10T02:42:10.104Z,0.00
2019-02-10T02:43:10.098Z,0.00
2019-02-10T02:44:10.085Z,0.00
2019-02-10T02:45:10.080Z,0.00
2019-02-10T02:46:10.080Z,0.00
2019-02-10T02:47:10.053Z,0.00
2019-02-10T02:48:10.037Z,0.00
2019-02-10T02:49:10.031Z,0.00
2019-02-10T02:50:10.022Z,0.00
2019-02-10T02:51:10.012Z,0.00
2019-02-10T02:52:10.023Z,0.00
2019-02-10T02:53:09.990Z,0.00
2019-02-10T02:54:09.982Z,0.00
2019-02-10T02:55:09.993Z,0.00
2019-02-10T02:56:09.957Z,0.00
2019-02-10T02:57:09.949Z,0.00
2019-02-10T02:58:09.951Z,0.00
2019-02-10T02:59:09.928Z,0.00
2019-02-10T03:00:09.916Z,0.00
2019-02-10T03:01:09.905Z,0.00
2019-02-10T03:02:09.896Z,0.00
2019-02-10T03:03:09.883Z,0.00
2019-02-10T03:04:09.890Z,0.00
2019-02-10T03:05:09.878Z,0.00
2019-02-10T03:06:09.853Z,0.00
2019-02-10T03:07:17.848Z,0.00
2019-02-10T03:08:10.831Z,0.00
2019-02-10T03:09:09.819Z,0.00
2019-02-10T03:10:09.827Z,0.00
2019-02-10T03:11:09.798Z,0.00
2019-02-10T03:12:09.787Z,0.00
2019-02-10T03:13:09.778Z,0.00
2019-02-10T03:14:09.765Z,0.00
2019-02-10T03:15:09.757Z,0.00
2019-02-10T03:16:09.770Z,0.00
2019-02-10T03:17:09.733Z,0.00
2019-02-10T03:18:09.723Z,0.00
2019-02-10T03:19:09.713Z,0.00
2019-02-10T03:20:09.701Z,0.00
2019-02-10T03:21:09.694Z,0.00
2019-02-10T03:22:09.707Z,0.00
2019-02-10T03:23:09.669Z,0.00
2019-02-10T03:24:09.664Z,0.00
2019-02-10T03:25:09.648Z,0.00
2019-02-10T03:26:09.649Z,0.00
2019-02-10T03:27:09.634Z,0.00
2019-02-10T03:28:09.659Z,0.00
2019-02-10T03:29:09.607Z,0.00
2019-02-10T03:30:09.602Z,0.00
2019-02-10T03:31:09.586Z,0.00
2019-02-10T03:32:09.576Z,0.00
2019-02-10T03:33:09.572Z,0.00
2019-02-10T03:34:09.582Z,0.00
2019-02-10T03:35:09.543Z,0.00
2019-02-10T03:36:09.533Z,0.00
2019-02-10T03:37:09.525Z,0.00
2019-02-10T03:38:09.515Z,0.00
2019-02-10T03:39:09.509Z,0.00
2019-02-10T03:40:09.506Z,0.00
2019-02-10T03:41:09.480Z,0.00
2019-02-10T03:42:09.479Z,0.00
2019-02-10T03:43:09.458Z,0.00
2019-02-10T03:44:09.447Z,0.00
2019-02-10T03:45:09.438Z,0.00
2019-02-10T03:46:09.444Z,0.00
2019-02-10T03:47:09.415Z,0.00
2019-02-10T03:48:09.407Z,0.00
2019-02-10T03:49:09.395Z,0.00
2019-02-10T03:50:09.385Z,0.00
2019-02-10T03:51:09.373Z,0.00
2019-02-10T03:52:09.377Z,0.00
2019-02-10T03:53:09.354Z,0.00
2019-02-10T03:54:09.363Z,0.00
2019-02-10T03:55:09.331Z,0.00
2019-02-10T03:56:09.322Z,0.00
2019-02-10T03:57:09.311Z,0.00
2019-02-10T03:58:09.316Z,0.00
2019-02-10T03:59:09.291Z,0.00
2019-02-10T04:00:09.277Z,0.00
2019-02-10T04:01:09.269Z,0.00
2019-02-10T04:02:09.279Z,0.00
2019-02-10T04:03:09.247Z,0.00
2019-02-10T04:04:09.255Z,0.00
2019-02-10T04:05:09.228Z,0.00
2019-02-10T04:06:09.213Z,0.00
2019-02-10T04:07:09.205Z,0.00
2019-02-10T04:08:09.195Z,0.00
2019-02-10T04:09:09.185Z,0.00
2019-02-10T04:10:09.187Z,0.00
2019-02-10T04:11:09.168Z,0.00
2019-02-10T04:12:09.152Z,0.00
2019-02-10T04:13:09.139Z,0.00
2019-02-10T04:14:09.130Z,0.00
2019-02-10T04:15:09.120Z,0.00
2019-02-10T04:16:09.127Z,0.00
2019-02-10T04:17:09.098Z,0.00
2019-02-10T04:18:09.089Z,0.00
2019-02-10T04:19:09.078Z,0.00
2019-02-10T04:20:09.070Z,0.00
2019-02-10T04:21:09.056Z,0.00
2019-02-10T04:22:09.062Z,0.00
2019-02-10T04:23:09.036Z,0.00
2019-02-10T04:24:09.026Z,0.00
2019-02-10T04:25:09.016Z,0.00
2019-02-10T04:26:09.002Z,0.00
2019-02-10T04:27:08.994Z,0.00
2019-02-10T04:28:09.000Z,0.00
2019-02-10T04:29:08.975Z,0.00
2019-02-10T04:30:09.444Z,0.00
2019-02-10T04:31:08.956Z,0.00
2019-02-10T04:32:08.946Z,0.00
2019-02-10T04:33:08.929Z,0.00
2019-02-10T04:34:08.944Z,0.00
2019-02-10T04:35:08.909Z,0.00
2019-02-10T04:36:08.903Z,0.00
2019-02-10T04:37:08.887Z,0.00
2019-02-10T04:38:08.877Z,0.00
2019-02-10T04:39:08.862Z,0.00
2019-02-10T04:40:08.883Z,0.00
2019-02-10T04:41:08.850Z,0.00
2019-02-10T04:42:08.837Z,0.00
2019-02-10T04:43:08.824Z,0.00
2019-02-10T04:44:08.822Z,0.00
2019-02-10T04:45:08.808Z,0.00
2019-02-10T04:46:08.812Z,0.00
2019-02-10T04:47:08.782Z,0.00
2019-02-10T04:48:08.772Z,0.00
2019-02-10T04:49:08.764Z,0.00
2019-02-10T04:50:08.750Z,0.00
2019-02-10T04:51:08.741Z,0.00
2019-02-10T04:52:08.750Z,0.00
2019-02-10T04:53:08.722Z,0.00
2019-02-10T04:54:08.710Z,0.00
2019-02-10T04:55:08.699Z,0.00
2019-02-10T04:56:08.690Z,0.00
2019-02-10T04:57:08.686Z,0.00
2019-02-10T04:58:08.680Z,0.00
2019-02-10T04:59:08.658Z,0.00
2019-02-10T05:00:08.645Z,0.00
2019-02-10T05:01:08.637Z,0.00
2019-02-10T05:02:08.626Z,0.00
2019-02-10T05:03:08.617Z,0.00
2019-02-10T05:04:08.623Z,0.00
2019-02-10T05:05:08.627Z,0.00
2019-02-10T05:06:08.589Z,0.00
2019-02-10T05:07:08.577Z,0.00
2019-02-10T05:08:08.562Z,0.00
2019-02-10T05:09:08.554Z,0.00
2019-02-10T05:10:08.560Z,0.00
2019-02-10T05:11:08.533Z,0.00
2019-02-10T05:12:08.523Z,0.00
2019-02-10T05:13:08.513Z,0.00
2019-02-10T05:14:08.502Z,0.00
2019-02-10T05:15:08.489Z,0.00
2019-02-10T05:16:08.495Z,0.00
2019-02-10T05:17:08.470Z,0.00
2019-02-10T05:18:08.460Z,0.00
2019-02-10T05:19:08.449Z,0.00
2019-02-10T05:20:08.442Z,0.00
2019-02-10T05:21:08.431Z,0.00
2019-02-10T05:22:08.432Z,0.00
2019-02-10T05:23:08.408Z,0.00
2019-02-10T05:24:08.395Z,0.00
2019-02-10T05:25:08.386Z,0.00
2019-02-10T05:26:08.377Z,0.00
2019-02-10T05:27:15.464Z,0.00
2019-02-10T05:28:08.353Z,0.00
2019-02-10T05:29:08.350Z,0.00
2019-02-10T05:30:08.338Z,0.00
2019-02-10T05:31:08.325Z,0.00
2019-02-10T05:32:08.316Z,0.00
2019-02-10T05:33:08.319Z,0.00
2019-02-10T05:34:08.304Z,0.00
2019-02-10T05:35:08.286Z,0.00
2019-02-10T05:36:08.279Z,0.00
2019-02-10T05:37:08.261Z,0.00
2019-02-10T05:38:08.249Z,0.00
2019-02-10T05:39:08.302Z,0.00
2019-02-10T05:40:08.231Z,0.00
2019-02-10T05:41:08.224Z,0.00
2019-02-10T05:42:08.208Z,0.00
2019-02-10T05:43:08.199Z,0.00
2019-02-10T05:44:08.192Z,0.00
2019-02-10T05:45:08.200Z,0.00
2019-02-10T05:46:08.163Z,0.00
2019-02-10T05:47:08.157Z,0.00
2019-02-10T05:48:08.146Z,0.00
2019-02-10T05:49:08.133Z,0.00
2019-02-10T05:50:08.137Z,0.00
2019-02-10T05:51:08.134Z,0.00
2019-02-10T05:52:08.116Z,0.00
2019-02-10T05:53:08.097Z,0.00
2019-02-10T05:54:08.109Z,0.00
2019-02-10T05:55:08.078Z,0.00
2019-02-10T05:56:08.067Z,0.00
2019-02-10T05:57:08.070Z,0.00
2019-02-10T05:58:08.045Z,0.00
2019-02-10T05:59:08.040Z,0.00
2019-02-10T06:00:08.027Z,0.00
2019-02-10T06:01:08.008Z,0.00
2019-02-10T06:02:07.999Z,0.00
2019-02-10T06:03:08.012Z,0.00
2019-02-10T06:04:07.981Z,0.00
2019-02-10T06:05:07.981Z,0.00
2019-02-10T06:06:07.960Z,0.00
2019-02-10T06:07:07.945Z,0.00
2019-02-10T06:08:13.391Z,0.00
2019-02-10T06:09:08.989Z,0.00
2019-02-10T06:10:07.915Z,0.00
2019-02-10T06:11:07.928Z,0.00
2019-02-10T06:12:07.893Z,0.00
2019-02-10T06:13:07.883Z,0.00
2019-02-10T06:14:07.874Z,0.00
2019-02-10T06:15:07.903Z,0.00
2019-02-10T06:16:07.854Z,0.00
2019-02-10T06:17:07.848Z,0.00
2019-02-10T06:18:07.874Z,0.00
2019-02-10T06:19:07.819Z,4.00
2019-02-10T06:20:07.829Z,4.00
2019-02-10T06:21:07.831Z,4.00
2019-02-10T06:22:07.786Z,4.00
2019-02-10T06:23:15.470Z,4.00
2019-02-10T06:24:08.772Z,8.00
2019-02-10T06:25:07.827Z,8.00
2019-02-10T06:26:07.752Z,8.00
2019-02-10T06:27:07.763Z,12.00
2019-02-10T06:28:07.732Z,12.00
2019-02-10T06:29:07.722Z,16.00
2019-02-10T06:30:07.709Z,20.00
2019-02-10T06:31:07.694Z,24.00
2019-02-10T06:32:07.680Z,28.00
2019-02-10T06:33:08.572Z,32.00
2019-02-10T06:34:07.701Z,40.00
2019-02-10T06:35:07.654Z,44.00
2019-02-10T06:36:07.639Z,48.00
2019-02-10T06:37:07.633Z,56.00
2019-02-10T06:38:07.620Z,68.00
2019-02-10T06:39:07.633Z,72.00
2019-02-10T06:40:07.601Z,80.00
2019-02-10T06:41:07.588Z,92.00
2019-02-10T06:42:07.575Z,100.00
2019-02-10T06:43:07.568Z,112.00
2019-02-10T06:44:07.556Z,124.00
2019-02-10T06:45:07.627Z,140.00
2019-02-10T06:46:07.539Z,156.00
2019-02-10T06:47:07.524Z,180.00
2019-02-10T06:48:07.530Z,200.00
2019-02-10T06:49:07.506Z,220.00
2019-02-10T06:50:07.491Z,248.00
2019-02-10T06:51:07.498Z,280.00
2019-02-10T06:52:07.486Z,312.00
2019-02-10T06:53:07.466Z,348.00
2019-02-10T06:54:07.498Z,384.00
2019-02-10T06:55:07.498Z,416.00
2019-02-10T06:56:07.439Z,444.00
2019-02-10T06:57:07.520Z,468.00
2019-02-10T06:58:07.408Z,488.00
2019-02-10T06:59:07.406Z,516.00
2019-02-10T07:00:07.386Z,552.00
2019-02-10T07:01:07.373Z,600.00
2019-02-10T07:02:07.389Z,660.00
2019-02-10T07:03:07.369Z,716.00
2019-02-10T07:04:07.344Z,772.00
2019-02-10T07:05:07.331Z,820.00
2019-02-10T07:06:07.321Z,868.00
2019-02-10T07:07:07.308Z,920.00
2019-02-10T07:08:07.302Z,980.00
2019-02-10T07:09:07.305Z,1044.00
2019-02-10T07:10:07.289Z,1108.00
2019-02-10T07:11:07.275Z,1164.00
2019-02-10T07:12:07.296Z,1208.00
2019-02-10T07:13:07.246Z,1244.00
2019-02-10T07:14:07.293Z,1280.00
2019-02-10T07:15:07.239Z,1316.00
2019-02-10T07:16:07.217Z,1368.00
2019-02-10T07:17:07.202Z,1428.00
2019-02-10T07:18:07.194Z,1504.00
2019-02-10T07:19:07.185Z,1588.00
2019-02-10T07:20:07.170Z,1664.00
2019-02-10T07:21:07.176Z,1740.00
2019-02-10T07:22:07.150Z,1808.00
2019-02-10T07:23:07.141Z,1872.00
2019-02-10T07:24:07.132Z,1936.00
2019-02-10T07:25:07.118Z,1988.00
2019-02-10T07:26:07.147Z,2020.00
2019-02-10T07:27:07.112Z,2076.00
2019-02-10T07:28:07.162Z,2148.00
2019-02-10T07:29:07.420Z,2240.00
2019-02-10T07:30:07.069Z,2348.00
2019-02-10T07:31:07.083Z,2448.00
2019-02-10T07:32:07.039Z,2544.00
2019-02-10T07:33:07.060Z,2668.00
2019-02-10T07:34:07.020Z,2760.00
2019-02-10T07:35:07.026Z,2844.00
2019-02-10T07:36:06.997Z,2928.00
2019-02-10T07:37:06.988Z,3024.00
2019-02-10T07:38:06.998Z,3128.00
2019-02-10T07:39:06.984Z,3236.00
2019-02-10T07:40:06.962Z,3360.00
2019-02-10T07:41:06.952Z,3492.00
2019-02-10T07:42:06.933Z,3596.00
2019-02-10T07:43:06.927Z,3684.00
2019-02-10T07:44:06.911Z,3776.00
2019-02-10T07:45:06.915Z,3840.00
2019-02-10T07:46:06.889Z,3876.00
2019-02-10T07:47:06.883Z,3876.00
2019-02-10T07:48:06.869Z,3912.00
2019-02-10T07:49:06.858Z,4032.00
2019-02-10T07:50:06.844Z,4172.00
2019-02-10T07:51:06.854Z,4404.00
2019-02-10T07:52:06.821Z,4552.00
2019-02-10T07:53:06.814Z,4616.00
2019-02-10T07:54:06.805Z,4732.00
2019-02-10T07:55:06.789Z,4812.00
2019-02-10T07:56:06.914Z,4880.00
2019-02-10T07:57:06.796Z,5024.00
2019-02-10T07:58:06.761Z,5172.00
2019-02-10T07:59:06.757Z,5412.00
2019-02-10T08:00:06.741Z,5780.00
2019-02-10T08:01:06.728Z,5976.00
2019-02-10T08:02:06.735Z,6016.00
2019-02-10T08:03:06.728Z,5768.00
2019-02-10T08:04:06.703Z,5688.00
2019-02-10T08:05:06.694Z,5700.00
2019-02-10T08:06:06.698Z,5844.00
2019-02-10T08:07:06.661Z,6092.00
2019-02-10T08:08:06.662Z,6432.00
2019-02-10T08:09:06.664Z,6720.00
2019-02-10T08:10:06.634Z,6852.00
2019-02-10T08:11:06.627Z,6916.00
2019-02-10T08:12:06.621Z,6980.00
2019-02-10T08:13:06.600Z,7052.00
2019-02-10T08:14:06.594Z,7092.00
2019-02-10T08:15:06.600Z,7264.00
2019-02-10T08:16:06.568Z,7720.00
2019-02-10T08:17:06.569Z,8044.00
2019-02-10T08:18:06.573Z,8648.00
2019-02-10T08:19:06.538Z,7888.00
2019-02-10T08:20:06.527Z,7668.00
2019-02-10T08:21:06.532Z,7896.00
2019-02-10T08:22:06.504Z,8140.00
2019-02-10T08:23:06.495Z,8352.00
2019-02-10T08:24:06.490Z,8472.00
2019-02-10T08:25:06.476Z,8680.00
2019-02-10T08:26:06.460Z,8616.00
2019-02-10T08:27:06.499Z,8556.00
2019-02-10T08:28:06.442Z,8524.00
2019-02-10T08:29:06.435Z,9016.00
2019-02-10T08:30:06.419Z,9116.00
2019-02-10T08:31:06.406Z,9292.00
2019-02-10T08:32:06.397Z,8660.00
2019-02-10T08:33:06.409Z,8548.00
2019-02-10T08:34:06.374Z,8340.00
2019-02-10T08:35:06.375Z,8400.00
2019-02-10T08:36:06.355Z,8360.00
2019-02-10T08:37:06.342Z,8416.00
2019-02-10T08:38:06.346Z,8584.00
2019-02-10T08:39:06.333Z,8944.00
2019-02-10T08:40:06.316Z,8804.00
2019-02-10T08:41:06.299Z,8748.00
2019-02-10T08:42:06.290Z,8304.00
2019-02-10T08:43:06.275Z,8212.00
2019-02-10T08:44:06.266Z,8188.00
2019-02-10T08:45:06.268Z,8216.00
2019-02-10T08:46:06.245Z,8288.00
2019-02-10T08:47:06.234Z,8320.00
2019-02-10T08:48:06.222Z,8456.00
2019-02-10T08:49:06.215Z,8968.00
2019-02-10T08:50:06.208Z,9424.00
2019-02-10T08:51:06.205Z,9536.00
2019-02-10T08:52:06.189Z,9896.00
2019-02-10T08:53:06.167Z,10488.00
2019-02-10T08:54:06.163Z,10472.00
2019-02-10T08:55:06.205Z,10392.00
2019-02-10T08:56:06.135Z,10784.00
2019-02-10T08:57:06.139Z,11368.00
2019-02-10T08:58:06.118Z,11956.00
2019-02-10T08:59:06.109Z,12788.00
2019-02-10T09:00:06.115Z,14096.00
2019-02-10T09:01:06.078Z,15048.00
2019-02-10T09:02:06.079Z,15504.00
2019-02-10T09:03:06.077Z,15140.00
2019-02-10T09:04:06.054Z,14796.00
2019-02-10T09:05:06.046Z,14432.00
2019-02-10T09:06:06.038Z,12708.00
2019-02-10T09:07:06.018Z,11856.00
2019-02-10T09:08:06.013Z,11216.00
2019-02-10T09:09:06.016Z,10880.00
2019-02-10T09:10:05.988Z,10836.00
2019-02-10T09:11:05.973Z,11032.00
2019-02-10T09:12:05.961Z,10980.00
2019-02-10T09:13:05.960Z,12340.00
2019-02-10T09:14:05.942Z,14680.00
2019-02-10T09:15:05.948Z,14780.00
2019-02-10T09:16:05.923Z,16704.00
2019-02-10T09:17:05.910Z,17184.00
2019-02-10T09:18:05.897Z,18080.00
2019-02-10T09:19:05.887Z,20800.00
2019-02-10T09:20:05.881Z,18528.00
2019-02-10T09:21:05.881Z,16000.00
2019-02-10T09:22:05.856Z,13456.00
2019-02-10T09:23:05.840Z,13876.00
2019-02-10T09:24:05.840Z,14936.00
2019-02-10T09:25:05.821Z,15936.00
2019-02-10T09:26:05.815Z,15872.00
2019-02-10T09:27:05.818Z,16000.00
2019-02-10T09:28:05.789Z,16864.00
2019-02-10T09:29:05.779Z,17088.00
2019-02-10T09:30:05.776Z,16800.00
2019-02-10T09:31:05.760Z,15904.00
2019-02-10T09:32:05.749Z,14392.00
2019-02-10T09:33:05.757Z,12944.00
2019-02-10T09:34:05.728Z,11956.00
2019-02-10T09:35:05.716Z,11720.00
2019-02-10T09:36:05.706Z,11528.00
2019-02-10T09:37:07.449Z,11108.00
2019-02-10T09:38:05.684Z,10696.00
2019-02-10T09:39:10.624Z,10780.00
2019-02-10T09:40:06.670Z,11184.00
2019-02-10T09:41:05.662Z,11420.00
2019-02-10T09:42:05.645Z,11224.00
2019-02-10T09:43:05.632Z,10760.00
2019-02-10T09:44:05.619Z,10324.00
2019-02-10T09:45:05.636Z,10112.00
2019-02-10T09:46:05.600Z,9936.00
2019-02-10T09:47:05.586Z,9744.00
2019-02-10T09:48:05.577Z,9376.00
2019-02-10T09:49:05.564Z,8972.00
2019-02-10T09:50:05.557Z,8496.00
2019-02-10T09:51:05.559Z,8016.00
2019-02-10T09:52:05.532Z,7768.00
2019-02-10T09:53:05.523Z,7596.00
2019-02-10T09:54:05.510Z,7408.00
2019-02-10T09:55:05.509Z,7200.00
2019-02-10T09:56:05.484Z,7012.00
2019-02-10T09:57:05.491Z,6824.00
2019-02-10T09:58:05.471Z,6708.00
2019-02-10T09:59:05.455Z,6880.00
2019-02-10T10:00:05.445Z,7404.00
2019-02-10T10:01:05.434Z,8140.00
2019-02-10T10:02:05.419Z,9012.00
2019-02-10T10:03:05.462Z,9592.00
2019-02-10T10:04:05.401Z,10080.00
2019-02-10T10:05:05.387Z,10648.00
2019-02-10T10:06:05.378Z,11184.00
2019-02-10T10:07:05.365Z,11796.00
2019-02-10T10:08:05.355Z,12404.00
2019-02-10T10:09:05.362Z,12856.00
2019-02-10T10:10:05.331Z,13276.00
2019-02-10T10:11:05.323Z,13852.00
2019-02-10T10:12:05.310Z,14868.00
2019-02-10T10:13:05.297Z,15656.00
2019-02-10T10:14:05.288Z,16416.00
2019-02-10T10:15:05.291Z,16704.00
2019-02-10T10:16:05.265Z,16704.00
2019-02-10T10:17:05.256Z,17216.00
2019-02-10T10:18:05.243Z,17984.00
2019-02-10T10:19:05.233Z,18336.00
2019-02-10T10:20:05.224Z,18112.00
2019-02-10T10:21:05.227Z,17216.00
2019-02-10T10:22:05.201Z,17024.00
2019-02-10T10:23:05.189Z,17408.00
2019-02-10T10:24:05.179Z,17472.00
2019-02-10T10:25:05.173Z,17952.00
2019-02-10T10:26:05.157Z,18080.00
2019-02-10T10:27:05.159Z,18304.00
2019-02-10T10:28:05.137Z,19040.00
2019-02-10T10:29:05.125Z,20224.00
2019-02-10T10:30:05.117Z,21440.00
2019-02-10T10:31:05.105Z,21984.00
2019-02-10T10:32:05.092Z,22880.00
2019-02-10T10:33:05.096Z,20800.00
2019-02-10T10:34:05.076Z,19552.00
2019-02-10T10:35:05.061Z,18560.00
2019-02-10T10:36:05.050Z,17152.00
2019-02-10T10:37:05.042Z,14808.00
2019-02-10T10:38:05.031Z,13076.00
2019-02-10T10:39:05.035Z,12332.00
2019-02-10T10:40:05.006Z,11680.00
2019-02-10T10:41:04.997Z,10636.00
2019-02-10T10:42:04.986Z,9924.00
2019-02-10T10:43:04.976Z,10232.00
2019-02-10T10:44:04.964Z,11024.00
2019-02-10T10:45:04.971Z,11536.00
2019-02-10T10:46:04.942Z,11568.00
2019-02-10T10:47:04.929Z,11964.00
2019-02-10T10:48:04.919Z,12592.00
2019-02-10T10:49:04.910Z,13028.00
2019-02-10T10:50:04.900Z,12804.00
2019-02-10T10:51:04.903Z,12060.00
2019-02-10T10:52:04.882Z,11748.00
2019-02-10T10:53:04.864Z,11536.00
2019-02-10T10:54:04.858Z,11280.00
2019-02-10T10:55:04.847Z,11516.00
2019-02-10T10:56:04.845Z,11948.00
2019-02-10T10:57:04.841Z,12448.00
2019-02-10T10:58:04.815Z,12612.00
2019-02-10T10:59:04.813Z,12232.00
2019-02-10T11:00:04.793Z,11504.00
2019-02-10T11:01:04.780Z,10876.00
2019-02-10T11:02:04.776Z,9964.00
2019-02-10T11:03:04.818Z,9256.00
2019-02-10T11:04:04.751Z,9072.00
2019-02-10T11:05:04.738Z,10120.00
2019-02-10T11:06:04.729Z,11100.00
2019-02-10T11:07:04.719Z,11644.00
2019-02-10T11:08:04.703Z,11936.00
2019-02-10T11:09:04.712Z,12292.00
2019-02-10T11:10:04.683Z,12832.00
2019-02-10T11:11:04.671Z,14120.00
2019-02-10T11:12:04.664Z,16032.00
2019-02-10T11:13:04.655Z,17504.00
2019-02-10T11:14:04.649Z,17984.00
2019-02-10T11:15:04.648Z,21536.00
2019-02-10T11:16:04.620Z,25408.00
2019-02-10T11:17:04.611Z,30816.00
2019-02-10T11:18:04.604Z,28320.00
2019-02-10T11:19:04.588Z,26432.00
2019-02-10T11:20:04.579Z,25312.00
2019-02-10T11:21:04.611Z,31040.00
2019-02-10T11:22:04.557Z,24064.00
2019-02-10T11:23:04.550Z,23072.00
2019-02-10T11:24:04.537Z,21888.00
2019-02-10T11:25:04.524Z,21152.00
2019-02-10T11:26:04.511Z,22880.00
2019-02-10T11:27:04.517Z,24864.00
2019-02-10T11:28:12.548Z,22528.00
2019-02-10T11:29:04.486Z,20288.00
2019-02-10T11:30:04.470Z,20352.00
2019-02-10T11:31:04.460Z,25344.00
2019-02-10T11:32:04.450Z,22496.00
2019-02-10T11:33:04.457Z,20096.00
2019-02-10T11:34:04.438Z,20064.00
2019-02-10T11:35:04.416Z,16864.00
2019-02-10T11:36:04.409Z,14280.00
2019-02-10T11:37:04.396Z,13748.00
2019-02-10T11:38:04.384Z,12732.00
2019-02-10T11:39:04.386Z,11700.00
2019-02-10T11:40:04.361Z,11688.00
2019-02-10T11:41:04.352Z,13080.00
2019-02-10T11:42:04.342Z,12516.00
2019-02-10T11:43:04.330Z,13212.00
2019-02-10T11:44:04.323Z,13540.00
2019-02-10T11:45:04.323Z,14852.00
2019-02-10T11:46:04.298Z,17504.00
2019-02-10T11:47:04.288Z,16960.00
2019-02-10T11:48:04.277Z,21376.00
2019-02-10T11:49:04.265Z,18400.00
2019-02-10T11:50:04.252Z,17056.00
2019-02-10T11:51:04.262Z,13440.00
2019-02-10T11:52:04.234Z,12752.00
2019-02-10T11:53:04.224Z,11628.00
2019-02-10T11:54:04.211Z,11092.00
2019-02-10T11:55:04.201Z,10756.00
2019-02-10T11:56:04.192Z,10408.00
2019-02-10T11:57:04.199Z,10152.00
2019-02-10T11:58:04.169Z,9944.00
2019-02-10T11:59:04.160Z,10020.00
2019-02-10T12:00:04.147Z,11040.00
2019-02-10T12:01:04.140Z,11532.00
2019-02-10T12:02:04.128Z,11596.00
2019-02-10T12:03:04.128Z,12880.00
2019-02-10T12:04:04.128Z,14652.00
2019-02-10T12:05:04.096Z,15448.00
2019-02-10T12:06:04.086Z,15432.00
2019-02-10T12:07:04.073Z,16512.00
2019-02-10T12:08:04.063Z,17216.00
2019-02-10T12:09:04.064Z,18304.00
2019-02-10T12:10:04.043Z,19040.00
2019-02-10T12:11:04.041Z,19008.00
2019-02-10T12:12:04.020Z,17664.00
2019-02-10T12:13:04.011Z,15340.00
2019-02-10T12:14:03.998Z,12052.00
2019-02-10T12:15:04.007Z,9748.00
2019-02-10T12:16:03.978Z,9888.00
2019-02-10T12:17:03.972Z,9552.00
2019-02-10T12:18:03.958Z,9356.00
2019-02-10T12:19:03.946Z,9012.00
2019-02-10T12:20:03.934Z,8480.00
2019-02-10T12:21:03.937Z,7860.00
2019-02-10T12:22:03.918Z,7988.00
2019-02-10T12:23:03.902Z,9132.00
2019-02-10T12:24:03.894Z,9032.00
2019-02-10T12:25:03.887Z,9184.00
2019-02-10T12:26:03.870Z,8324.00
2019-02-10T12:27:03.870Z,6028.00
2019-02-10T12:28:03.848Z,4936.00
2019-02-10T12:29:03.836Z,5032.00
2019-02-10T12:30:03.826Z,5900.00
2019-02-10T12:31:03.813Z,6892.00
2019-02-10T12:32:03.807Z,7212.00
2019-02-10T12:33:03.813Z,7632.00
2019-02-10T12:34:03.788Z,7456.00
2019-02-10T12:35:03.774Z,7452.00
2019-02-10T12:36:03.764Z,7356.00
2019-02-10T12:37:03.749Z,6860.00